Time;durP1;ratioP1;P1;durP2;ratioP2;P2;SDS_P1;SDS_P2;PMS_P1;PMS_P2;Temp;Humidity;BMP_temperature;BMP_pressure;BME280_temperature;BME280_humidity;BME280_pressure;Samples;Min_cycle;Max_cycle;Signal;HPM_P1;HPM_P2
2022/05/20 00:01:08;;;;;;;48.97;29.55;;;;;;;17.47;100.00;101781.78;5081133;28;20130;-72
2022/05/20 00:03:36;;;;;;;50.13;30.17;;;;;;;17.46;100.00;101783.00;5079755;28;20047;-73
2022/05/20 00:06:03;;;;;;;49.22;30.88;;;;;;;17.49;100.00;101786.97;5087280;28;20118;-73
2022/05/20 00:08:29;;;;;;;51.78;31.95;;;;;;;17.57;100.00;101789.25;5072419;28;20043;-73
2022/05/20 00:10:56;;;;;;;51.40;32.25;;;;;;;17.66;100.00;101785.94;5085627;28;20075;-72
2022/05/20 00:13:25;;;;;;;53.85;32.92;;;;;;;17.74;100.00;101784.63;5078218;28;20127;-73
2022/05/20 00:15:53;;;;;;;49.72;31.48;;;;;;;17.80;100.00;101778.16;5083506;28;20097;-74
2022/05/20 00:18:20;;;;;;;49.33;31.15;;;;;;;17.79;100.00;101773.75;5084018;28;20055;-73
2022/05/20 00:20:47;;;;;;;50.53;29.27;;;;;;;17.71;100.00;101777.06;5082633;28;20395;-73
2022/05/20 00:23:13;;;;;;;49.45;31.45;;;;;;;17.68;100.00;101766.69;5077114;28;20044;-75
2022/05/20 00:25:46;;;;;;;51.72;32.10;;;;;;;17.66;100.00;101769.91;5084205;28;20044;-73
2022/05/20 00:28:22;;;;;;;50.83;31.35;;;;;;;17.64;100.00;101766.75;5082477;28;20101;-73
2022/05/20 00:30:54;;;;;;;55.42;32.50;;;;;;;17.63;100.00;101769.97;5080828;28;20054;-73
2022/05/20 00:33:22;;;;;;;56.72;33.83;;;;;;;17.54;100.00;101764.91;5079990;28;20032;-73
2022/05/20 00:35:48;;;;;;;48.80;32.10;;;;;;;17.48;100.00;101757.38;5080693;28;20097;-72
2022/05/20 00:38:16;;;;;;;56.03;34.40;;;;;;;17.44;100.00;101753.84;5079825;28;20132;-76
2022/05/20 00:40:44;;;;;;;52.47;33.65;;;;;;;17.44;100.00;101751.03;5081929;28;20400;-73
2022/05/20 00:43:10;;;;;;;54.67;33.78;;;;;;;17.38;100.00;101756.28;5083877;28;20044;-73
2022/05/20 00:45:39;;;;;;;49.95;31.30;;;;;;;17.40;100.00;101755.84;5077228;28;20045;-74
2022/05/20 00:48:07;;;;;;;52.40;31.75;;;;;;;17.41;100.00;101751.84;5078392;28;20052;-73
2022/05/20 00:50:36;;;;;;;50.75;31.52;;;;;;;17.40;100.00;101753.88;5078206;28;20058;-73
2022/05/20 00:53:03;;;;;;;49.63;32.00;;;;;;;17.40;100.00;101764.25;5081337;28;20151;-73
2022/05/20 00:55:30;;;;;;;56.30;32.25;;;;;;;17.40;100.00;101762.25;5077435;28;20144;-74
2022/05/20 00:58:04;;;;;;;49.05;31.67;;;;;;;17.37;100.00;101765.09;5073002;28;20048;-73
2022/05/20 01:00:35;;;;;;;55.30;32.40;;;;;;;17.36;100.00;101767.09;5079563;28;20080;-73
2022/05/20 01:03:06;;;;;;;52.80;32.35;;;;;;;17.26;100.00;101762.44;5079361;28;20056;-72
2022/05/20 01:05:45;;;;;;;45.08;28.55;;;;;;;17.17;100.00;101764.13;5068334;28;20486;-73
2022/05/20 01:08:14;;;;;;;51.42;31.55;;;;;;;17.10;100.00;101758.63;5085018;28;20052;-74
2022/05/20 01:10:41;;;;;;;49.72;31.40;;;;;;;17.08;100.00;101761.06;5074858;28;20052;-73
2022/05/20 01:13:09;;;;;;;54.35;33.75;;;;;;;17.06;100.00;101763.47;5079101;28;20493;-73
2022/05/20 01:15:36;;;;;;;47.85;29.27;;;;;;;16.91;100.00;101768.41;5077261;28;20054;-72
2022/05/20 01:18:03;;;;;;;54.60;33.63;;;;;;;16.85;100.00;101774.88;5080812;28;20067;-73
2022/05/20 01:20:35;;;;;;;52.53;32.20;;;;;;;16.79;100.00;101768.13;5082493;28;20062;-73
2022/05/20 01:23:08;;;;;;;61.30;35.00;;;;;;;16.85;100.00;101769.28;5077000;28;20557;-74
2022/05/20 01:25:36;;;;;;;48.50;28.40;;;;;;;16.91;100.00;101773.22;5076780;28;20075;-72
2022/05/20 01:28:02;;;;;;;49.63;30.08;;;;;;;16.93;100.00;101773.59;5081260;28;20484;-73
2022/05/20 01:30:30;;;;;;;50.97;29.80;;;;;;;16.95;100.00;101765.59;5074052;28;20457;-73
2022/05/20 01:32:59;;;;;;;46.05;28.25;;;;;;;16.94;100.00;101767.56;5072260;28;20521;-73
2022/05/20 01:35:30;;;;;;;50.47;31.15;;;;;;;16.95;100.00;101769.19;5079453;28;20515;-73
2022/05/20 01:37:57;;;;;;;44.28;29.50;;;;;;;16.94;100.00;101755.63;5076279;28;20054;-74
2022/05/20 01:40:23;;;;;;;48.33;29.70;;;;;;;16.94;100.00;101775.97;5087043;28;20044;-73
2022/05/20 01:43:05;;;;;;;48.35;29.15;;;;;;;16.87;100.00;101762.06;5082538;28;20067;-74
2022/05/20 01:45:42;;;;;;;50.83;28.40;;;;;;;16.87;100.00;101761.28;5083988;28;20053;-73
2022/05/20 01:48:24;;;;;;;49.97;27.55;;;;;;;16.84;100.00;101762.13;5082093;28;20131;-73
2022/05/20 01:50:55;;;;;;;50.88;31.13;;;;;;;16.73;100.00;101751.03;5070540;28;20568;-74
2022/05/20 01:53:36;;;;;;;53.92;30.95;;;;;;;16.72;100.00;101765.41;5067184;28;20048;-74
2022/05/20 01:56:09;;;;;;;48.28;30.77;;;;;;;16.55;100.00;101767.19;5074923;28;20058;-73
2022/05/20 01:58:53;;;;;;;50.00;31.55;;;;;;;16.47;100.00;101767.66;5076538;28;20614;-74
2022/05/20 02:01:26;;;;;;;53.60;32.05;;;;;;;16.45;100.00;101765.28;5084967;28;20123;-74
2022/05/20 02:03:59;;;;;;;50.63;30.58;;;;;;;16.46;100.00;101758.47;5081510;28;20517;-74
2022/05/20 02:06:50;;;;;;;46.45;29.60;;;;;;;16.48;100.00;101763.66;5080062;28;20059;-74
2022/05/20 02:09:24;;;;;;;46.00;27.27;;;;;;;16.50;100.00;101761.25;5087466;28;20404;-73
2022/05/20 02:11:53;;;;;;;46.58;29.52;;;;;;;16.49;100.00;101754.84;5078066;28;20561;-73
2022/05/20 02:14:46;;;;;;;47.90;29.27;;;;;;;16.44;100.00;101743.34;5072266;28;20136;-74
2022/05/20 02:17:34;;;;;;;43.47;27.83;;;;;;;16.39;100.00;101738.13;5086337;28;20449;-74
2022/05/20 02:20:17;;;;;;;46.20;27.77;;;;;;;16.34;100.00;101739.41;5079222;28;20079;-73
2022/05/20 02:22:50;;;;;;;50.10;27.98;;;;;;;16.33;100.00;101739.81;5083338;28;20596;-74
2022/05/20 02:25:22;;;;;;;47.33;29.27;;;;;;;16.31;100.00;101742.22;5075479;28;20814;-74
2022/05/20 02:27:55;;;;;;;48.22;30.35;;;;;;;16.28;100.00;101743.84;5079625;28;20123;-74
2022/05/20 02:30:27;;;;;;;49.95;29.52;;;;;;;16.23;100.00;101740.69;5068208;28;20052;-73
2022/05/20 02:33:08;;;;;;;46.03;28.75;;;;;;;16.20;100.00;101736.69;5068030;28;20052;-72
2022/05/20 02:35:35;;;;;;;50.65;28.88;;;;;;;16.18;100.00;101725.16;5072442;28;20054;-74
2022/05/20 02:38:09;;;;;;;46.08;28.02;;;;;;;16.15;100.00;101727.97;5075832;28;20402;-73
2022/05/20 02:40:36;;;;;;;49.88;27.75;;;;;;;16.14;100.00;101732.78;5067820;28;20058;-74
2022/05/20 02:43:03;;;;;;;47.15;27.38;;;;;;;16.09;100.00;101724.81;5067487;28;20135;-73
2022/05/20 02:45:29;;;;;;;44.30;26.63;;;;;;;16.04;100.00;101727.28;5068134;28;20037;-73
2022/05/20 02:47:56;;;;;;;47.47;29.27;;;;;;;15.98;100.00;101726.09;5080882;28;20052;-73
2022/05/20 02:50:23;;;;;;;48.13;28.17;;;;;;;15.92;100.00;101720.16;5071566;28;20044;-73
2022/05/20 02:52:50;;;;;;;45.30;28.38;;;;;;;15.89;100.00;101728.59;5087376;28;20080;-74
2022/05/20 02:55:17;;;;;;;49.70;28.85;;;;;;;15.89;100.00;101725.78;5083027;28;20047;-74
2022/05/20 02:57:44;;;;;;;47.88;28.00;;;;;;;15.86;100.00;101729.41;5078559;28;20055;-74
2022/05/20 03:05:43;;;;;;;46.75;26.67;;;;;;;15.76;100.00;101731.03;5079473;28;20044;-74
2022/05/20 03:08:10;;;;;;;45.38;26.52;;;;;;;15.73;100.00;101733.88;5086510;28;20054;-72
2022/05/20 03:10:37;;;;;;;47.22;28.30;;;;;;;15.70;100.00;101729.09;5067543;28;20406;-73
2022/05/20 03:13:06;;;;;;;50.35;28.23;;;;;;;15.68;100.00;101725.91;5066794;28;20048;-73
2022/05/20 03:15:35;;;;;;;47.45;27.25;;;;;;;15.66;100.00;101731.88;5078411;28;20574;-73
2022/05/20 03:18:01;;;;;;;45.35;26.90;;;;;;;15.62;100.00;101731.13;5079102;28;20075;-72
2022/05/20 03:20:28;;;;;;;50.72;28.52;;;;;;;15.59;100.00;101737.50;5078232;28;20121;-72
2022/05/20 03:22:55;;;;;;;47.72;27.70;;;;;;;15.57;100.00;101737.16;5073239;28;20053;-72
2022/05/20 03:25:21;;;;;;;46.60;28.13;;;;;;;15.56;100.00;101743.13;5081062;28;20498;-74
2022/05/20 03:27:48;;;;;;;49.75;29.00;;;;;;;15.55;100.00;101731.16;5080215;28;20079;-74
2022/05/20 03:30:15;;;;;;;51.65;30.15;;;;;;;15.52;100.00;101731.19;5083062;28;20135;-73
2022/05/20 03:32:42;;;;;;;50.92;29.30;;;;;;;15.52;100.00;101736.78;5088757;28;20083;-73
2022/05/20 03:35:10;;;;;;;46.55;27.92;;;;;;;15.53;100.00;101728.00;5079233;28;20083;-73
2022/05/20 03:37:36;;;;;;;49.72;29.63;;;;;;;15.53;100.00;101722.44;5085454;28;20131;-73
2022/05/20 03:40:04;;;;;;;49.10;29.30;;;;;;;15.50;100.00;101721.22;5074212;28;20080;-73
2022/05/20 03:42:31;;;;;;;49.53;29.48;;;;;;;15.48;100.00;101724.84;5070895;28;20066;-72
2022/05/20 03:44:58;;;;;;;58.08;33.60;;;;;;;15.45;100.00;101721.66;5071704;28;20048;-72
2022/05/20 03:47:24;;;;;;;56.15;32.40;;;;;;;15.43;100.00;101724.06;5079985;28;20461;-73
2022/05/20 03:49:51;;;;;;;54.33;31.73;;;;;;;15.37;100.00;101722.91;5079884;28;20072;-72
2022/05/20 03:52:18;;;;;;;53.92;31.73;;;;;;;15.39;100.00;101726.06;5082048;28;20135;-72
2022/05/20 03:54:44;;;;;;;49.90;29.98;;;;;;;15.38;100.00;101730.06;5084058;28;20152;-73
2022/05/20 03:57:11;;;;;;;51.72;30.05;;;;;;;15.38;100.00;101732.06;5080799;28;20040;-72
2022/05/20 03:59:38;;;;;;;52.22;29.35;;;;;;;15.41;100.00;101732.06;5083708;28;20048;-72
2022/05/20 04:02:10;;;;;;;45.50;27.25;;;;;;;15.42;100.00;101727.25;5085591;28;20131;-74
2022/05/20 04:04:39;;;;;;;49.22;29.23;;;;;;;15.43;100.00;101735.22;5079509;28;20600;-75
2022/05/20 04:07:15;;;;;;;49.75;30.20;;;;;;;15.33;100.00;101730.44;5071673;28;20086;-73
2022/05/20 04:09:41;;;;;;;49.60;31.90;;;;;;;15.39;100.00;101734.44;5082302;28;20429;-72
2022/05/20 04:12:16;;;;;;;54.13;31.90;;;;;;;15.40;100.00;101736.00;5072262;28;20043;-72
2022/05/20 04:14:43;;;;;;;58.67;32.92;;;;;;;15.43;100.00;101731.63;5087168;28;20048;-73
2022/05/20 04:17:09;;;;;;;56.35;32.72;;;;;;;15.52;100.00;101750.72;5081174;28;20039;-73
2022/05/20 04:19:36;;;;;;;51.67;30.08;;;;;;;15.53;100.00;101739.94;5080456;28;20068;-72
2022/05/20 04:22:08;;;;;;;46.80;27.25;;;;;;;15.54;100.00;101746.31;5085516;28;20044;-73
2022/05/20 04:24:36;;;;;;;47.40;28.67;;;;;;;15.56;100.00;101749.50;5090011;28;20131;-73
2022/05/20 04:27:03;;;;;;;51.85;28.55;;;;;;;15.56;100.00;101755.09;5082315;28;20394;-74
2022/05/20 04:29:29;;;;;;;49.05;29.45;;;;;;;15.60;100.00;101755.88;5075500;28;20052;-73
2022/05/20 04:31:56;;;;;;;43.50;25.88;;;;;;;15.62;100.00;101752.66;5088636;28;20460;-73
2022/05/20 04:34:24;;;;;;;50.47;27.50;;;;;;;15.65;100.00;101752.63;5073540;28;20512;-73
2022/05/20 04:36:50;;;;;;;44.55;25.48;;;;;;;15.65;100.00;101752.63;5076727;28;20060;-73
2022/05/20 04:39:17;;;;;;;45.85;27.48;;;;;;;15.67;100.00;101744.66;5086875;28;20056;-72
2022/05/20 04:47:24;;;;;;;53.08;29.88;;;;;;;15.69;100.00;101745.03;5086900;28;20107;-73
2022/05/20 04:49:51;;;;;;;47.67;26.92;;;;;;;15.73;100.00;101750.59;5080800;28;20498;-73
2022/05/20 04:52:18;;;;;;;48.58;27.98;;;;;;;15.75;100.00;101753.75;5086882;28;20062;-75
2022/05/20 04:54:51;;;;;;;49.08;30.48;;;;;;;15.80;100.00;101753.34;5085679;28;20143;-74
2022/05/20 04:57:22;;;;;;;59.85;33.08;;;;;;;15.84;100.00;101754.91;5082416;28;20044;-73
2022/05/20 04:59:53;;;;;;;52.95;31.23;;;;;;;15.87;100.00;101744.94;5085924;28;20234;-73
2022/05/20 05:02:20;;;;;;;55.00;31.65;;;;;;;15.92;100.00;101742.50;5077727;28;20054;-74
2022/05/20 05:04:47;;;;;;;52.65;32.08;;;;;;;15.95;100.00;101746.47;5070204;28;20052;-74
2022/05/20 05:07:14;;;;;;;56.05;32.72;;;;;;;15.95;100.00;101743.66;5086630;28;20476;-72
2022/05/20 05:09:42;;;;;;;55.47;32.25;;;;;;;15.96;100.00;101748.06;5086142;28;20047;-74
2022/05/20 05:12:11;;;;;;;59.30;34.42;;;;;;;15.98;100.00;101746.44;5080298;28;20048;-73
2022/05/20 05:14:44;;;;;;;58.08;34.30;;;;;;;16.02;100.00;101750.00;5074379;28;20424;-73
2022/05/20 05:17:13;;;;;;;63.90;35.78;;;;;;;16.04;100.00;101744.81;5078276;28;20717;-69
2022/05/20 05:19:41;;;;;;;62.03;35.75;;;;;;;16.09;100.00;101738.78;5079641;28;20071;-74
2022/05/20 05:22:08;;;;;;;64.95;38.72;;;;;;;16.18;100.00;101738.31;5080681;28;20138;-73
2022/05/20 05:24:37;;;;;;;63.15;34.85;;;;;;;16.27;100.00;101728.25;5075140;28;20050;-73
2022/05/20 05:27:05;;;;;;;62.70;38.30;;;;;;;16.36;100.00;101730.59;5081708;28;20127;-74
2022/05/20 05:29:34;;;;;;;60.80;35.30;;;;;;;16.43;100.00;101720.19;5068347;28;20090;-73
2022/05/20 05:32:01;;;;;;;59.00;35.08;;;;;;;16.53;100.00;101729.66;5078045;28;20082;-73
2022/05/20 05:34:28;;;;;;;59.50;34.97;;;;;;;16.59;100.00;101726.03;5084377;28;20048;-74
2022/05/20 05:36:55;;;;;;;57.42;34.55;;;;;;;16.68;100.00;101722.75;5089439;28;20107;-73
2022/05/20 05:39:21;;;;;;;55.30;32.35;;;;;;;16.76;100.00;101725.03;5086238;28;20044;-74
2022/05/20 05:41:48;;;;;;;55.03;31.60;;;;;;;16.82;100.00;101720.59;5080677;28;20114;-75
2022/05/20 05:44:14;;;;;;;55.25;30.35;;;;;;;16.85;100.00;101714.19;5071495;28;20052;-74
2022/05/20 05:46:41;;;;;;;53.83;31.70;;;;;;;16.93;100.00;101728.84;5073449;28;20669;-73
2022/05/20 05:49:08;;;;;;;54.05;28.75;;;;;;;17.02;100.00;101723.56;5076474;28;20064;-75
2022/05/20 05:51:34;;;;;;;54.83;30.83;;;;;;;17.09;100.00;101713.09;5077825;28;20589;-75
2022/05/20 05:54:01;;;;;;;49.72;28.60;;;;;;;17.13;100.00;101711.03;5082126;28;20130;-77
2022/05/20 05:56:27;;;;;;;48.63;27.65;;;;;;;17.19;100.00;101700.19;5088607;28;20055;-76
2022/05/20 05:58:54;;;;;;;48.05;27.45;;;;;;;17.24;100.00;101692.13;5077534;28;20138;-77
2022/05/20 06:01:21;;;;;;;52.38;28.38;;;;;;;17.33;100.00;101688.81;5081570;28;20044;-76
2022/05/20 06:03:48;;;;;;;49.40;27.13;;;;;;;17.39;100.00;101676.72;5078594;28;20094;-76
2022/05/20 06:06:15;;;;;;;46.60;27.73;;;;;;;17.46;100.00;101679.47;5089810;28;20048;-76
2022/05/20 06:08:41;;;;;;;45.30;27.15;;;;;;;17.53;100.00;101672.97;5088569;28;20108;-76
2022/05/20 06:11:08;;;;;;;50.75;31.33;;;;;;;17.59;100.00;101660.88;5081937;28;20051;-74
2022/05/20 06:13:34;;;;;;;51.47;29.15;;;;;;;17.68;100.00;101660.34;5072823;28;20132;-75
2022/05/20 06:16:01;;;;;;;45.67;23.83;;;;;;;17.75;100.00;101672.22;5075094;28;20050;-75
2022/05/20 06:18:27;;;;;;;45.28;25.95;;;;;;;17.83;100.00;101667.31;5075270;28;20109;-75
2022/05/20 06:20:54;;;;;;;43.65;25.98;;;;;;;17.88;100.00;101664.03;5084241;28;20117;-74
2022/05/20 06:23:21;;;;;;;43.85;26.13;;;;;;;17.92;100.00;101653.56;5080920;28;20076;-75
2022/05/20 06:25:48;;;;;;;42.13;24.08;;;;;;;18.01;100.00;101665.00;5083336;28;20063;-74
2022/05/20 06:28:34;;;;;;;46.15;26.42;;;;;;;18.12;100.00;101662.81;5070774;28;20044;-75
2022/05/20 06:31:04;;;;;;;44.88;26.58;;;;;;;18.22;100.00;101664.66;5078083;28;20051;-74
2022/05/20 06:33:31;;;;;;;40.92;25.08;;;;;;;18.30;100.00;101668.13;5069265;28;20076;-75
2022/05/20 06:41:28;;;;;;;39.70;22.53;;;;;;;18.55;100.00;101663.69;5078738;28;20044;-75
2022/05/20 06:43:55;;;;;;;38.10;21.13;;;;;;;18.57;100.00;101664.06;5083215;28;20048;-76
2022/05/20 06:46:22;;;;;;;31.67;17.48;;;;;;;18.63;100.00;101653.13;5078197;28;20564;-74
2022/05/20 06:48:58;;;;;;;33.40;19.08;;;;;;;18.72;100.00;101658.94;5081946;28;20052;-75
2022/05/20 06:51:33;;;;;;;32.15;16.02;;;;;;;18.75;100.00;101656.09;5088778;28;20076;-74
2022/05/20 06:54:02;;;;;;;29.95;15.50;;;;;;;18.79;100.00;101653.19;5081859;28;20503;-75
2022/05/20 06:56:29;;;;;;;32.75;16.45;;;;;;;18.86;100.00;101662.25;5077334;28;20059;-75
2022/05/20 06:58:57;;;;;;;27.42;14.93;;;;;;;18.93;100.00;101658.53;5077950;28;20045;-75
2022/05/20 07:01:24;;;;;;;35.03;18.65;;;;;;;19.03;100.00;101671.56;5082364;28;20048;-76
2022/05/20 07:03:52;;;;;;;28.33;13.95;;;;;;;19.08;100.00;101666.22;5074191;28;20129;-74
2022/05/20 07:06:19;;;;;;;27.40;15.93;;;;;;;19.09;100.00;101670.59;5076339;28;20415;-74
2022/05/20 07:08:48;;;;;;;30.83;18.05;;;;;;;19.18;100.00;101670.81;5076815;28;20056;-68
2022/05/20 07:11:18;;;;;;;31.20;17.13;;;;;;;19.24;100.00;101660.66;5080669;28;20093;-71
2022/05/20 07:13:45;;;;;;;37.70;20.80;;;;;;;19.35;100.00;101660.47;5077308;28;20075;-73
2022/05/20 07:16:17;;;;;;;36.97;18.83;;;;;;;19.39;100.00;101650.75;5078463;28;20102;-72
2022/05/20 07:18:44;;;;;;;36.75;20.10;;;;;;;19.43;100.00;101656.25;5084432;28;20497;-71
2022/05/20 07:21:10;;;;;;;32.72;18.65;;;;;;;19.47;100.00;101643.72;5081591;28;20043;-72
2022/05/20 07:23:37;;;;;;;34.53;19.50;;;;;;;19.56;100.00;101655.16;5089707;28;20135;-73
2022/05/20 07:26:04;;;;;;;29.42;17.48;;;;;;;19.63;100.00;101651.38;5088915;28;20064;-72
2022/05/20 07:28:31;;;;;;;31.60;19.75;;;;;;;19.61;100.00;101645.44;5078766;28;20135;-72
2022/05/20 07:30:58;;;;;;;34.55;21.00;;;;;;;19.64;100.00;101650.19;5084839;28;20052;-72
2022/05/20 07:33:25;;;;;;;36.63;22.45;;;;;;;19.65;100.00;101640.50;5081028;28;20744;-72
2022/05/20 07:35:52;;;;;;;35.15;21.05;;;;;;;19.66;100.00;101630.84;5076560;28;20050;-74
2022/05/20 07:38:19;;;;;;;34.25;21.10;;;;;;;19.66;100.00;101623.25;5083065;28;20078;-74
2022/05/20 07:40:45;;;;;;;33.72;21.88;;;;;;;19.76;100.00;101619.38;5071124;28;20059;-75
2022/05/20 07:43:12;;;;;;;35.97;20.73;;;;;;;19.80;100.00;101624.91;5082246;28;20134;-74
2022/05/20 07:45:39;;;;;;;34.50;21.98;;;;;;;19.77;100.00;101614.53;5079383;28;20181;-74
2022/05/20 07:48:06;;;;;;;38.85;24.33;;;;;;;19.79;100.00;101612.09;5086809;28;20416;-73
2022/05/20 07:50:40;;;;;;;39.35;25.25;;;;;;;19.83;100.00;101609.97;5078355;28;20047;-74
2022/05/20 07:53:21;;;;;;;39.10;19.95;;;;;;;19.88;100.00;101609.47;5069291;28;20052;-73
2022/05/20 07:56:09;;;;;;;38.72;23.13;;;;;;;19.91;100.00;101609.38;5085885;28;20127;-74
2022/05/20 07:58:51;;;;;;;38.15;21.40;;;;;;;20.00;100.00;101597.50;5079013;28;20081;-74
2022/05/20 08:01:21;;;;;;;39.65;20.73;;;;;;;20.12;100.00;101594.78;5080519;28;20484;-74
2022/05/20 08:06:38;;;;;;;31.77;18.13;;;;;;;20.29;96.21;101585.09;5071237;28;20048;-73
2022/05/20 08:09:06;;;;;;;35.17;19.92;;;;;;;20.32;96.01;101586.25;5086860;28;20134;-73
2022/05/20 08:11:33;;;;;;;32.28;20.60;;;;;;;20.35;93.53;101588.16;5085852;28;20484;-73
2022/05/20 08:14:00;;;;;;;38.75;21.38;;;;;;;20.42;91.96;101581.56;5081800;28;20048;-75
2022/05/20 08:16:27;;;;;;;33.53;19.20;;;;;;;20.57;91.97;101580.72;5082394;28;20075;-73
2022/05/20 08:18:54;;;;;;;32.63;16.90;;;;;;;20.70;89.59;101586.38;5084097;28;20062;-75
2022/05/20 08:21:20;;;;;;;29.98;15.77;;;;;;;20.77;87.29;101581.34;5078564;28;20560;-73
2022/05/20 08:23:47;;;;;;;30.13;15.77;;;;;;;20.84;84.98;101577.50;5074230;28;20543;-72
2022/05/20 08:26:17;;;;;;;29.05;14.73;;;;;;;21.01;86.26;101582.66;5086876;28;20094;-74
2022/05/20 08:28:44;;;;;;;26.00;12.98;;;;;;;21.19;84.81;101577.25;5079907;28;20075;-74
2022/05/20 08:31:11;;;;;;;23.73;12.35;;;;;;;21.26;80.58;101571.41;5069780;28;20238;-72
2022/05/20 08:33:38;;;;;;;29.42;14.13;;;;;;;21.40;81.62;101567.34;5078589;28;20059;-72
2022/05/20 08:36:05;;;;;;;31.95;16.38;;;;;;;21.54;80.68;101561.25;5084633;28;20083;-76
2022/05/20 08:38:31;;;;;;;28.10;15.55;;;;;;;21.68;80.45;101560.78;5089005;28;20071;-70
2022/05/20 08:41:00;;;;;;;28.88;15.00;;;;;;;21.78;78.87;101549.22;5076237;28;20060;-70
2022/05/20 08:43:33;;;;;;;27.42;15.20;;;;;;;21.87;77.75;101556.97;5074885;28;20084;-70
2022/05/20 08:46:01;;;;;;;26.80;15.77;;;;;;;21.91;78.47;101540.72;5076465;28;20044;-70
2022/05/20 08:48:28;;;;;;;28.10;15.77;;;;;;;22.01;78.12;101542.38;5080670;28;20045;-70
2022/05/20 08:50:56;;;;;;;27.70;14.40;;;;;;;22.14;77.29;101543.88;5083742;28;20139;-72
2022/05/20 08:53:28;;;;;;;27.33;14.68;;;;;;;22.22;74.99;101541.59;5089932;28;20052;-69
2022/05/20 08:56:01;;;;;;;32.00;17.13;;;;;;;22.27;75.69;101543.84;5075954;28;20152;-70
2022/05/20 08:58:27;;;;;;;33.38;18.33;;;;;;;22.37;74.48;101539.84;5077846;28;20143;-70
2022/05/20 09:00:55;;;;;;;31.05;16.60;;;;;;;22.48;75.44;101540.25;5083762;28;20055;-70
2022/05/20 09:03:22;;;;;;;32.30;18.73;;;;;;;22.59;73.84;101535.03;5081925;28;20067;-74
2022/05/20 09:06:00;;;;;;;33.85;19.45;;;;;;;22.68;73.78;101527.41;5077598;28;20049;-73
2022/05/20 09:08:33;;;;;;;31.55;17.02;;;;;;;22.75;72.35;101527.13;5085051;28;20143;-73
2022/05/20 09:11:01;;;;;;;29.75;17.90;;;;;;;22.90;74.32;101532.22;5073878;28;20050;-74
2022/05/20 09:16:28;;;;;;;37.63;21.75;;;;;;;23.04;73.62;101529.63;5082943;28;20112;-74
2022/05/20 09:19:09;;;;;;;40.28;22.88;;;;;;;;;;5083652;28;20098;-73
2022/05/20 09:21:42;;;;;;;39.03;23.75;;;;;;;23.08;73.78;101516.16;5073957;28;20048;-74
2022/05/20 09:24:22;;;;;;;36.35;22.42;;;;;;;23.06;73.42;101513.03;5078178;28;20079;-74
2022/05/20 09:27:00;;;;;;;41.08;22.45;;;;;;;23.12;73.95;101496.25;5083839;28;20139;-74
2022/05/20 09:29:59;;;;;;;33.95;19.83;;;;;;;23.06;74.32;101493.28;5080851;28;20537;-74
2022/05/20 09:32:33;;;;;;;35.22;21.30;;;;;;;23.15;75.44;101486.88;5070652;28;20328;-76
2022/05/20 09:35:13;;;;;;;32.33;19.30;;;;;;;23.23;75.26;101491.00;5089248;28;20109;-73
2022/05/20 09:37:41;;;;;;;40.90;22.05;;;;;;;23.32;75.64;101479.72;5079020;28;20048;-74
2022/05/20 09:40:37;;;;;;;35.95;22.05;;;;;;;23.42;75.00;101473.63;5079666;28;20047;-74
2022/05/20 09:43:44;;;;;;;33.45;19.90;;;;;;;23.59;73.51;101468.50;5079123;28;20048;-72
2022/05/20 09:46:28;;;;;;;34.25;20.48;;;;;;;23.61;72.66;101468.78;5074138;28;20043;-74
2022/05/20 09:49:04;;;;;;;32.97;19.77;;;;;;;23.67;72.74;101473.38;5079201;28;20660;-70
2022/05/20 09:51:33;;;;;;;37.03;21.30;;;;;;;23.76;72.26;101464.88;5067989;28;20076;-76
2022/05/20 09:54:24;;;;;;;35.45;21.33;;;;;;;23.93;70.89;101456.91;5080069;28;20091;-74
2022/05/20 09:57:17;;;;;;;34.13;21.02;;;;;;;24.02;71.30;101454.88;5073325;28;20068;-73
2022/05/20 10:00:32;;;;;;;35.45;18.92;;;;;;;24.12;71.44;101445.13;5079932;28;20483;-74
2022/05/20 10:03:13;;;;;;;34.63;20.50;;;;;;;24.20;71.50;101437.88;5037628;28;20518;-72
2022/05/20 10:05:59;;;;;;;31.80;18.50;;;;;;;24.40;71.32;101437.38;5067594;28;20052;-73
2022/05/20 10:08:42;;;;;;;33.50;19.80;;;;;;;24.66;70.37;101424.44;5074279;28;20055;-74
2022/05/20 10:11:16;;;;;;;31.20;17.70;;;;;;;24.75;67.93;101418.75;5072194;28;20127;-74
2022/05/20 10:14:21;;;;;;;34.67;20.52;;;;;;;24.83;67.49;101415.09;5071606;28;20072;-74
2022/05/20 10:16:57;;;;;;;33.10;19.97;;;;;;;24.99;67.74;101414.69;5082845;28;20632;-73
2022/05/20 10:19:36;;;;;;;;;;;;;;;24.75;66.38;101402.56;5081951;28;20058;-73
2022/05/20 10:22:10;;;;;;;38.55;22.92;;;;;;;24.86;69.75;101388.66;5076098;28;19957;-73
2022/05/20 10:25:26;;;;;;;36.15;22.70;;;;;;;25.04;67.99;101385.72;5067182;28;20084;-72
2022/05/20 10:28:05;;;;;;;;;;;;;;;25.21;67.26;101379.66;5039895;28;20183;-74
2022/05/20 10:33:28;;;;;;;37.50;22.48;;;;;;;25.49;68.36;101379.00;5044635;28;20056;-72
2022/05/20 10:35:55;;;;;;;39.60;20.83;;;;;;;25.60;67.59;101367.06;5038031;28;20044;-72
2022/05/20 10:38:39;;;;;;;34.58;21.98;;;;;;;25.60;67.11;101355.75;5037613;28;20123;-74
2022/05/20 10:41:16;;;;;;;35.05;19.67;;;;;;;25.71;67.92;101353.91;5039234;28;20053;-71
2022/05/20 10:49:59;;;;;;;33.35;19.60;;;;;;;26.53;65.17;101328.31;5005040;28;20091;-73
2022/05/20 10:52:46;;;;;;;33.75;19.67;;;;;;;26.55;64.64;101318.00;5042320;28;20148;-74
2022/05/20 10:55:20;;;;;;;41.15;23.60;;;;;;;26.55;64.63;101306.66;5039274;28;20059;-74
2022/05/20 10:58:18;;;;;;;33.53;21.02;;;;;;;26.59;64.90;101300.78;5043507;28;20053;-73
2022/05/20 11:00:50;;;;;;;35.05;21.77;;;;;;;26.86;64.58;101289.84;5007391;28;20073;-75
2022/05/20 11:03:37;;;;;;;34.47;20.77;;;;;;;26.92;64.37;101272.88;5038800;28;20132;-77
2022/05/20 11:06:23;;;;;;;37.60;23.73;;;;;;;26.98;63.91;101251.00;5068715;28;20618;-75
2022/05/20 11:09:24;;;;;;;37.20;24.75;;;;;;;27.07;63.38;101223.22;5082028;28;20063;-75
2022/05/20 11:11:59;;;;;;;35.78;21.98;;;;;;;27.11;63.94;101217.34;5079869;28;20056;-71
2022/05/20 11:14:41;;;;;;;35.45;21.77;;;;;;;27.25;63.46;101214.44;5073466;28;20041;-72
2022/05/20 11:17:29;;;;;;;37.65;22.85;;;;;;;27.27;63.70;101211.84;5077847;28;20048;-73
2022/05/20 11:20:17;;;;;;;36.08;23.00;;;;;;;27.37;63.85;101196.19;5076861;28;20105;-75
2022/05/20 11:23:08;;;;;;;35.58;22.40;;;;;;;27.54;62.78;101182.16;5085259;28;20078;-76
2022/05/20 11:25:55;;;;;;;33.83;20.23;;;;;;;27.83;62.71;101193.25;5073616;28;20416;-74
2022/05/20 11:28:40;;;;;;;35.13;21.83;;;;;;;28.00;62.40;101176.34;5076102;28;20044;-72
2022/05/20 11:31:25;;;;;;;35.03;22.10;;;;;;;27.94;60.97;101167.75;5073365;28;20055;-73
2022/05/20 11:33:56;;;;;;;36.97;22.65;;;;;;;27.96;62.45;101161.56;5076236;28;20048;-77
2022/05/20 11:36:38;;;;;;;42.38;24.83;;;;;;;27.87;60.46;101158.94;5075405;28;20128;-76
2022/05/20 11:39:40;;;;;;;34.22;20.00;;;;;;;27.97;60.39;101151.78;5076724;28;20044;-76
2022/05/20 11:42:15;;;;;;;38.97;23.08;;;;;;;28.10;60.94;101155.72;5077590;28;20432;-77
2022/05/20 11:45:09;;;;;;;38.15;23.00;;;;;;;28.34;58.38;101153.25;5079158;28;20052;-77
2022/05/20 11:47:57;;;;;;;35.67;22.13;;;;;;;28.61;58.72;101140.50;5083815;28;20037;-79
2022/05/20 11:50:45;;;;;;;37.20;22.38;;;;;;;29.19;58.80;101119.69;5078516;28;20449;-78
2022/05/20 11:53:42;;;;;;;31.05;20.65;;;;;;;29.83;57.51;101121.50;5082528;28;20052;-77
2022/05/20 11:56:16;;;;;;;33.28;22.27;;;;;;;29.96;54.76;101113.19;5082063;28;20135;-77
2022/05/20 11:59:02;;;;;;;34.05;20.90;;;;;;;29.57;54.38;101116.81;5080060;28;20076;-78